sensor_id;sensor_type;location;lat;lon;timestamp;pressure;altitude;pressure_sealevel;temperature;humidity
51067;BME280;37112;45.892;-123.962;2023-10-31T00:01:14;102019.17;;;14.38;67.61
51067;BME280;37112;45.892;-123.962;2023-10-31T00:03:24;102016.83;;;14.36;67.70
51067;BME280;37112;45.892;-123.962;2023-10-31T00:05:35;102013.89;;;14.32;67.58
51067;BME280;37112;45.892;-123.962;2023-10-31T00:07:45;102008.34;;;14.26;67.54
51067;BME280;37112;45.892;-123.962;2023-10-31T00:09:55;102003.78;;;14.22;67.79
51067;BME280;37112;45.892;-123.962;2023-10-31T00:12:06;102002.15;;;14.19;68.03
51067;BME280;37112;45.892;-123.962;2023-10-31T00:14:16;101998.21;;;14.17;68.10
51067;BME280;37112;45.892;-123.962;2023-10-31T00:16:36;101999.61;;;14.11;68.09
51067;BME280;37112;45.892;-123.962;2023-10-31T00:18:46;101999.20;;;14.04;68.04
51067;BME280;37112;45.892;-123.962;2023-10-31T00:20:56;101997.98;;;13.97;68.15
51067;BME280;37112;45.892;-123.962;2023-10-31T00:23:06;101994.38;;;13.92;68.31
51067;BME280;37112;45.892;-123.962;2023-10-31T00:25:16;101987.52;;;13.87;68.36
51067;BME280;37112;45.892;-123.962;2023-10-31T00:27:26;101986.41;;;13.85;68.39
51067;BME280;37112;45.892;-123.962;2023-10-31T00:29:36;101983.27;;;13.84;68.61
51067;BME280;37112;45.892;-123.962;2023-10-31T00:31:46;101986.55;;;13.83;68.75
51067;BME280;37112;45.892;-123.962;2023-10-31T00:33:56;101985.45;;;13.81;68.76
51067;BME280;37112;45.892;-123.962;2023-10-31T00:36:06;101980.50;;;13.77;68.77
51067;BME280;37112;45.892;-123.962;2023-10-31T00:38:16;101983.13;;;13.72;68.72
51067;BME280;37112;45.892;-123.962;2023-10-31T00:40:26;101982.16;;;13.64;68.85
51067;BME280;37112;45.892;-123.962;2023-10-31T00:42:36;101981.95;;;13.56;68.74
51067;BME280;37112;45.892;-123.962;2023-10-31T00:44:48;101982.13;;;13.47;68.69
51067;BME280;37112;45.892;-123.962;2023-10-31T00:46:58;101981.52;;;13.39;68.73
51067;BME280;37112;45.892;-123.962;2023-10-31T00:49:07;101982.05;;;13.30;68.80
51067;BME280;37112;45.892;-123.962;2023-10-31T00:51:18;101983.81;;;13.21;68.75
51067;BME280;37112;45.892;-123.962;2023-10-31T00:53:29;101981.50;;;13.12;68.85
51067;BME280;37112;45.892;-123.962;2023-10-31T00:55:39;101982.94;;;13.02;68.82
51067;BME280;37112;45.892;-123.962;2023-10-31T00:57:49;101983.64;;;12.93;68.83
51067;BME280;37112;45.892;-123.962;2023-10-31T00:59:59;101985.39;;;12.84;68.84
51067;BME280;37112;45.892;-123.962;2023-10-31T01:02:09;101989.84;;;12.75;68.75
51067;BME280;37112;45.892;-123.962;2023-10-31T01:04:19;101991.98;;;12.65;68.88
51067;BME280;37112;45.892;-123.962;2023-10-31T01:06:29;101992.23;;;12.54;68.79
51067;BME280;37112;45.892;-123.962;2023-10-31T01:08:39;101992.59;;;12.42;68.66
51067;BME280;37112;45.892;-123.962;2023-10-31T01:10:49;101991.80;;;12.30;68.66
51067;BME280;37112;45.892;-123.962;2023-10-31T01:12:59;101989.77;;;12.18;68.72
51067;BME280;37112;45.892;-123.962;2023-10-31T01:15:09;101989.80;;;12.08;68.73
51067;BME280;37112;45.892;-123.962;2023-10-31T01:17:19;101990.33;;;11.98;68.75
51067;BME280;37112;45.892;-123.962;2023-10-31T01:19:29;101993.11;;;11.86;68.63
51067;BME280;37112;45.892;-123.962;2023-10-31T01:21:39;101997.96;;;11.74;68.82
51067;BME280;37112;45.892;-123.962;2023-10-31T01:23:49;102001.00;;;11.63;68.85
51067;BME280;37112;45.892;-123.962;2023-10-31T01:25:59;102003.89;;;11.52;68.82
51067;BME280;37112;45.892;-123.962;2023-10-31T01:28:09;102002.92;;;11.40;68.74
51067;BME280;37112;45.892;-123.962;2023-10-31T01:30:19;102001.77;;;11.28;68.78
51067;BME280;37112;45.892;-123.962;2023-10-31T01:32:29;102005.35;;;11.16;68.98
51067;BME280;37112;45.892;-123.962;2023-10-31T01:34:39;102008.49;;;11.06;69.03
51067;BME280;37112;45.892;-123.962;2023-10-31T01:36:49;102010.56;;;10.93;68.68
51067;BME280;37112;45.892;-123.962;2023-10-31T01:38:59;102014.70;;;10.81;68.78
51067;BME280;37112;45.892;-123.962;2023-10-31T01:41:09;102019.05;;;10.72;68.98
51067;BME280;37112;45.892;-123.962;2023-10-31T01:43:30;102021.14;;;10.61;68.98
51067;BME280;37112;45.892;-123.962;2023-10-31T01:45:40;102018.70;;;10.49;69.00
51067;BME280;37112;45.892;-123.962;2023-10-31T01:47:50;102021.10;;;10.40;69.14
51067;BME280;37112;45.892;-123.962;2023-10-31T01:50:00;102017.59;;;10.30;69.34
51067;BME280;37112;45.892;-123.962;2023-10-31T01:52:10;102017.60;;;10.22;69.28
51067;BME280;37112;45.892;-123.962;2023-10-31T01:54:20;102021.16;;;10.14;69.38
51067;BME280;37112;45.892;-123.962;2023-10-31T01:56:30;102018.56;;;10.05;69.28
51067;BME280;37112;45.892;-123.962;2023-10-31T01:58:41;102021.43;;;9.96;69.26
51067;BME280;37112;45.892;-123.962;2023-10-31T02:00:51;102021.76;;;9.89;69.43
51067;BME280;37112;45.892;-123.962;2023-10-31T02:03:01;102022.70;;;9.83;69.62
51067;BME280;37112;45.892;-123.962;2023-10-31T02:05:11;102024.84;;;9.79;69.69
51067;BME280;37112;45.892;-123.962;2023-10-31T02:07:22;102025.90;;;9.75;69.88
51067;BME280;37112;45.892;-123.962;2023-10-31T02:09:31;102027.75;;;9.69;69.70
51067;BME280;37112;45.892;-123.962;2023-10-31T02:11:41;102022.74;;;9.62;69.63
51067;BME280;37112;45.892;-123.962;2023-10-31T02:13:51;102018.05;;;9.55;69.56
51067;BME280;37112;45.892;-123.962;2023-10-31T02:16:01;102019.83;;;9.47;69.43
51067;BME280;37112;45.892;-123.962;2023-10-31T02:18:12;102018.36;;;9.40;69.71
51067;BME280;37112;45.892;-123.962;2023-10-31T02:20:22;102022.17;;;9.33;69.76
51067;BME280;37112;45.892;-123.962;2023-10-31T02:22:32;102024.05;;;9.27;69.70
51067;BME280;37112;45.892;-123.962;2023-10-31T02:24:42;102021.35;;;9.19;69.49
51067;BME280;37112;45.892;-123.962;2023-10-31T02:26:52;102026.52;;;9.09;69.50
51067;BME280;37112;45.892;-123.962;2023-10-31T02:29:02;102029.36;;;9.01;69.49
51067;BME280;37112;45.892;-123.962;2023-10-31T02:31:13;102033.52;;;8.93;69.50
51067;BME280;37112;45.892;-123.962;2023-10-31T02:33:23;102030.52;;;8.89;69.83
51067;BME280;37112;45.892;-123.962;2023-10-31T02:35:33;102025.36;;;8.85;69.88
51067;BME280;37112;45.892;-123.962;2023-10-31T02:37:43;102022.20;;;8.80;70.00
51067;BME280;37112;45.892;-123.962;2023-10-31T02:39:53;102024.83;;;8.76;70.00
51067;BME280;37112;45.892;-123.962;2023-10-31T02:42:03;102020.98;;;8.71;70.07
51067;BME280;37112;45.892;-123.962;2023-10-31T02:44:14;102016.94;;;8.65;70.01
51067;BME280;37112;45.892;-123.962;2023-10-31T02:46:26;102016.29;;;8.59;70.05
51067;BME280;37112;45.892;-123.962;2023-10-31T02:48:36;102014.95;;;8.53;70.07
51067;BME280;37112;45.892;-123.962;2023-10-31T02:50:48;102017.67;;;8.46;70.09
51067;BME280;37112;45.892;-123.962;2023-10-31T02:52:58;102014.81;;;8.37;69.98
51067;BME280;37112;45.892;-123.962;2023-10-31T02:55:08;102014.31;;;8.31;70.07
51067;BME280;37112;45.892;-123.962;2023-10-31T02:57:19;102013.80;;;8.26;70.16
51067;BME280;37112;45.892;-123.962;2023-10-31T02:59:29;102015.29;;;8.23;70.20
51067;BME280;37112;45.892;-123.962;2023-10-31T03:01:39;102014.52;;;8.21;70.06
51067;BME280;37112;45.892;-123.962;2023-10-31T03:03:50;102018.06;;;8.21;70.13
51067;BME280;37112;45.892;-123.962;2023-10-31T03:06:00;102015.80;;;8.20;69.98
51067;BME280;37112;45.892;-123.962;2023-10-31T03:08:10;102012.15;;;8.18;69.91
51067;BME280;37112;45.892;-123.962;2023-10-31T03:10:21;102013.63;;;8.16;69.93
51067;BME280;37112;45.892;-123.962;2023-10-31T03:12:30;102015.25;;;8.15;69.98
51067;BME280;37112;45.892;-123.962;2023-10-31T03:14:41;102014.23;;;8.14;69.97
51067;BME280;37112;45.892;-123.962;2023-10-31T03:16:51;102016.58;;;8.13;69.86
51067;BME280;37112;45.892;-123.962;2023-10-31T03:19:01;102021.40;;;8.12;69.83
51067;BME280;37112;45.892;-123.962;2023-10-31T03:21:11;102019.63;;;8.12;69.75
51067;BME280;37112;45.892;-123.962;2023-10-31T03:23:22;102020.84;;;8.13;69.75
51067;BME280;37112;45.892;-123.962;2023-10-31T03:25:32;102020.15;;;8.12;69.63
51067;BME280;37112;45.892;-123.962;2023-10-31T03:27:42;102023.94;;;8.10;69.40
51067;BME280;37112;45.892;-123.962;2023-10-31T03:29:52;102029.69;;;8.07;69.33
51067;BME280;37112;45.892;-123.962;2023-10-31T03:32:03;102028.79;;;8.03;69.15
51067;BME280;37112;45.892;-123.962;2023-10-31T03:34:13;102033.89;;;7.99;69.21
51067;BME280;37112;45.892;-123.962;2023-10-31T03:36:23;102029.63;;;7.95;69.17
51067;BME280;37112;45.892;-123.962;2023-10-31T03:38:33;102030.33;;;7.90;69.12
51067;BME280;37112;45.892;-123.962;2023-10-31T03:40:44;102025.33;;;7.86;69.11
51067;BME280;37112;45.892;-123.962;2023-10-31T03:42:53;102025.33;;;7.81;68.98
51067;BME280;37112;45.892;-123.962;2023-10-31T03:45:03;102026.41;;;7.75;69.11
51067;BME280;37112;45.892;-123.962;2023-10-31T03:47:14;102031.15;;;7.71;69.08
51067;BME280;37112;45.892;-123.962;2023-10-31T03:49:24;102032.36;;;7.67;69.14
51067;BME280;37112;45.892;-123.962;2023-10-31T03:51:34;102033.76;;;7.62;69.23
51067;BME280;37112;45.892;-123.962;2023-10-31T03:53:44;102030.80;;;7.55;68.92
51067;BME280;37112;45.892;-123.962;2023-10-31T03:55:55;102029.85;;;7.47;69.01
51067;BME280;37112;45.892;-123.962;2023-10-31T03:58:05;102029.54;;;7.41;69.23
51067;BME280;37112;45.892;-123.962;2023-10-31T04:00:15;102030.45;;;7.35;69.11
51067;BME280;37112;45.892;-123.962;2023-10-31T04:02:26;102029.59;;;7.28;69.28
51067;BME280;37112;45.892;-123.962;2023-10-31T04:04:36;102036.48;;;7.23;69.36
51067;BME280;37112;45.892;-123.962;2023-10-31T04:06:46;102037.65;;;7.20;69.43
51067;BME280;37112;45.892;-123.962;2023-10-31T04:08:56;102035.00;;;7.14;69.53
51067;BME280;37112;45.892;-123.962;2023-10-31T04:11:06;102032.94;;;7.13;69.72
51067;BME280;37112;45.892;-123.962;2023-10-31T04:13:15;102027.89;;;7.11;69.71
51067;BME280;37112;45.892;-123.962;2023-10-31T04:15:25;102025.67;;;7.08;69.56
51067;BME280;37112;45.892;-123.962;2023-10-31T04:17:35;102032.59;;;7.07;69.67
51067;BME280;37112;45.892;-123.962;2023-10-31T04:19:46;102033.63;;;7.07;69.81
51067;BME280;37112;45.892;-123.962;2023-10-31T04:21:55;102033.77;;;7.09;69.85
51067;BME280;37112;45.892;-123.962;2023-10-31T04:24:06;102034.21;;;7.11;69.68
51067;BME280;37112;45.892;-123.962;2023-10-31T04:26:16;102041.35;;;7.14;69.78
51067;BME280;37112;45.892;-123.962;2023-10-31T04:28:26;102039.46;;;7.19;69.85
51067;BME280;37112;45.892;-123.962;2023-10-31T04:30:35;102040.64;;;7.20;69.58
51067;BME280;37112;45.892;-123.962;2023-10-31T04:32:45;102040.16;;;7.19;69.56
51067;BME280;37112;45.892;-123.962;2023-10-31T04:34:56;102042.16;;;7.17;69.61
51067;BME280;37112;45.892;-123.962;2023-10-31T04:37:06;102042.35;;;7.16;69.59
51067;BME280;37112;45.892;-123.962;2023-10-31T04:39:16;102042.94;;;7.14;69.61
51067;BME280;37112;45.892;-123.962;2023-10-31T04:41:25;102041.95;;;7.13;69.47
51067;BME280;37112;45.892;-123.962;2023-10-31T04:43:40;102043.18;;;7.07;69.24
51067;BME280;37112;45.892;-123.962;2023-10-31T04:45:50;102044.23;;;7.02;69.35
51067;BME280;37112;45.892;-123.962;2023-10-31T04:48:00;102044.58;;;6.96;69.20
51067;BME280;37112;45.892;-123.962;2023-10-31T04:50:11;102042.50;;;6.89;69.12
51067;BME280;37112;45.892;-123.962;2023-10-31T04:52:20;102040.64;;;6.81;69.22
51067;BME280;37112;45.892;-123.962;2023-10-31T04:54:33;102032.74;;;6.74;69.38
51067;BME280;37112;45.892;-123.962;2023-10-31T04:56:43;102038.55;;;6.69;69.53
51067;BME280;37112;45.892;-123.962;2023-10-31T04:58:53;102036.85;;;6.66;69.79
51067;BME280;37112;45.892;-123.962;2023-10-31T05:01:03;102040.34;;;6.67;70.10
51067;BME280;37112;45.892;-123.962;2023-10-31T05:03:17;102043.30;;;6.70;70.21
51067;BME280;37112;45.892;-123.962;2023-10-31T05:05:27;102045.75;;;6.70;70.14
51067;BME280;37112;45.892;-123.962;2023-10-31T05:07:37;102047.10;;;6.72;70.12
51067;BME280;37112;45.892;-123.962;2023-10-31T05:09:47;102047.70;;;6.76;70.23
51067;BME280;37112;45.892;-123.962;2023-10-31T05:11:57;102051.98;;;6.80;70.06
51067;BME280;37112;45.892;-123.962;2023-10-31T05:14:07;102052.59;;;6.83;69.89
51067;BME280;37112;45.892;-123.962;2023-10-31T05:16:17;102048.91;;;6.82;69.58
51067;BME280;37112;45.892;-123.962;2023-10-31T05:18:27;102045.50;;;6.78;69.46
51067;BME280;37112;45.892;-123.962;2023-10-31T05:20:37;102052.37;;;6.73;69.25
51067;BME280;37112;45.892;-123.962;2023-10-31T05:22:47;102050.39;;;6.68;69.15
51067;BME280;37112;45.892;-123.962;2023-10-31T05:24:57;102053.71;;;6.63;69.31
51067;BME280;37112;45.892;-123.962;2023-10-31T05:27:07;102055.08;;;6.59;69.40
51067;BME280;37112;45.892;-123.962;2023-10-31T05:29:16;102055.20;;;6.55;69.38
51067;BME280;37112;45.892;-123.962;2023-10-31T05:31:26;102052.77;;;6.54;69.67
51067;BME280;37112;45.892;-123.962;2023-10-31T05:33:36;102052.23;;;6.54;69.83
51067;BME280;37112;45.892;-123.962;2023-10-31T05:35:46;102053.58;;;6.56;69.93
51067;BME280;37112;45.892;-123.962;2023-10-31T05:37:56;102052.55;;;6.61;70.08
51067;BME280;37112;45.892;-123.962;2023-10-31T05:40:07;102054.98;;;6.68;70.23
51067;BME280;37112;45.892;-123.962;2023-10-31T05:42:17;102055.80;;;6.76;70.22
51067;BME280;37112;45.892;-123.962;2023-10-31T05:44:28;102052.58;;;6.83;70.17
51067;BME280;37112;45.892;-123.962;2023-10-31T05:46:39;102053.74;;;6.91;70.10
51067;BME280;37112;45.892;-123.962;2023-10-31T05:48:49;102058.48;;;6.97;69.79
51067;BME280;37112;45.892;-123.962;2023-10-31T05:51:00;102059.59;;;7.03;69.61
51067;BME280;37112;45.892;-123.962;2023-10-31T05:53:10;102054.71;;;7.06;69.34
51067;BME280;37112;45.892;-123.962;2023-10-31T05:55:20;102057.88;;;7.06;69.05
51067;BME280;37112;45.892;-123.962;2023-10-31T05:57:30;102057.20;;;7.05;68.86
51067;BME280;37112;45.892;-123.962;2023-10-31T05:59:40;102054.77;;;7.04;68.76
51067;BME280;37112;45.892;-123.962;2023-10-31T06:01:49;102055.39;;;7.01;68.51
51067;BME280;37112;45.892;-123.962;2023-10-31T06:03:59;102062.29;;;7.00;68.60
51067;BME280;37112;45.892;-123.962;2023-10-31T06:06:10;102065.27;;;7.02;68.48
51067;BME280;37112;45.892;-123.962;2023-10-31T06:08:20;102065.64;;;7.00;68.30
51067;BME280;37112;45.892;-123.962;2023-10-31T06:10:31;102072.40;;;6.98;68.20
51067;BME280;37112;45.892;-123.962;2023-10-31T06:12:41;102070.73;;;6.96;68.04
51067;BME280;37112;45.892;-123.962;2023-10-31T06:14:51;102068.20;;;6.92;68.09
51067;BME280;37112;45.892;-123.962;2023-10-31T06:17:01;102071.48;;;6.89;68.06
51067;BME280;37112;45.892;-123.962;2023-10-31T06:19:11;102071.72;;;6.87;68.19
51067;BME280;37112;45.892;-123.962;2023-10-31T06:21:21;102073.34;;;6.86;68.36
51067;BME280;37112;45.892;-123.962;2023-10-31T06:23:31;102067.08;;;6.82;68.31
51067;BME280;37112;45.892;-123.962;2023-10-31T06:25:41;102062.30;;;6.77;68.12
51067;BME280;37112;45.892;-123.962;2023-10-31T06:27:51;102055.71;;;6.73;68.35
51067;BME280;37112;45.892;-123.962;2023-10-31T06:30:02;102056.99;;;6.72;68.47
51067;BME280;37112;45.892;-123.962;2023-10-31T06:32:29;102049.88;;;6.73;68.70
51067;BME280;37112;45.892;-123.962;2023-10-31T06:34:39;102043.80;;;6.76;68.76
51067;BME280;37112;45.892;-123.962;2023-10-31T06:36:49;102042.41;;;6.81;68.80
51067;BME280;37112;45.892;-123.962;2023-10-31T06:39:00;102037.70;;;6.85;68.78
51067;BME280;37112;45.892;-123.962;2023-10-31T06:41:10;102039.99;;;6.85;68.40
51067;BME280;37112;45.892;-123.962;2023-10-31T06:43:20;102040.02;;;6.84;68.27
51067;BME280;37112;45.892;-123.962;2023-10-31T06:45:30;102038.79;;;6.84;68.30
51067;BME280;37112;45.892;-123.962;2023-10-31T06:47:42;102039.11;;;6.85;68.05
51067;BME280;37112;45.892;-123.962;2023-10-31T06:49:52;102045.09;;;6.86;68.05
51067;BME280;37112;45.892;-123.962;2023-10-31T06:52:02;102043.95;;;6.88;68.03
51067;BME280;37112;45.892;-123.962;2023-10-31T06:54:13;102041.58;;;6.90;67.98
51067;BME280;37112;45.892;-123.962;2023-10-31T06:56:22;102042.82;;;6.90;67.76
51067;BME280;37112;45.892;-123.962;2023-10-31T06:58:32;102043.20;;;6.89;67.66
51067;BME280;37112;45.892;-123.962;2023-10-31T07:00:42;102039.59;;;6.87;67.40
51067;BME280;37112;45.892;-123.962;2023-10-31T07:02:52;102035.34;;;6.81;67.22
51067;BME280;37112;45.892;-123.962;2023-10-31T07:05:02;102030.05;;;6.75;67.34
51067;BME280;37112;45.892;-123.962;2023-10-31T07:07:13;102033.88;;;6.71;67.40
51067;BME280;37112;45.892;-123.962;2023-10-31T07:09:22;102032.38;;;6.68;67.56
51067;BME280;37112;45.892;-123.962;2023-10-31T07:11:33;102029.38;;;6.68;67.62
51067;BME280;37112;45.892;-123.962;2023-10-31T07:13:43;102030.95;;;6.68;67.66
51067;BME280;37112;45.892;-123.962;2023-10-31T07:15:53;102033.29;;;6.67;67.66
51067;BME280;37112;45.892;-123.962;2023-10-31T07:18:03;102035.21;;;6.68;67.72
51067;BME280;37112;45.892;-123.962;2023-10-31T07:20:13;102031.62;;;6.70;67.71
51067;BME280;37112;45.892;-123.962;2023-10-31T07:22:23;102033.73;;;6.76;67.62
51067;BME280;37112;45.892;-123.962;2023-10-31T07:24:33;102036.45;;;6.85;67.63
51067;BME280;37112;45.892;-123.962;2023-10-31T07:26:43;102034.09;;;6.93;67.54
51067;BME280;37112;45.892;-123.962;2023-10-31T07:28:53;102033.90;;;6.99;67.19
51067;BME280;37112;45.892;-123.962;2023-10-31T07:31:03;102034.98;;;7.04;67.10
51067;BME280;37112;45.892;-123.962;2023-10-31T07:33:13;102037.09;;;7.10;66.95
51067;BME280;37112;45.892;-123.962;2023-10-31T07:35:23;102037.59;;;7.16;66.75
51067;BME280;37112;45.892;-123.962;2023-10-31T07:37:33;102040.52;;;7.18;66.58
51067;BME280;37112;45.892;-123.962;2023-10-31T07:39:43;102037.48;;;7.20;66.52
51067;BME280;37112;45.892;-123.962;2023-10-31T07:41:53;102040.88;;;7.19;66.31
51067;BME280;37112;45.892;-123.962;2023-10-31T07:44:04;102036.88;;;7.16;66.09
51067;BME280;37112;45.892;-123.962;2023-10-31T07:46:14;102033.14;;;7.12;66.07
51067;BME280;37112;45.892;-123.962;2023-10-31T07:48:24;102026.95;;;7.07;66.00
51067;BME280;37112;45.892;-123.962;2023-10-31T07:50:33;102022.52;;;7.02;65.97
51067;BME280;37112;45.892;-123.962;2023-10-31T07:52:43;102018.24;;;6.97;65.77
51067;BME280;37112;45.892;-123.962;2023-10-31T07:54:54;102013.98;;;6.92;65.91
51067;BME280;37112;45.892;-123.962;2023-10-31T07:57:04;102013.95;;;6.88;66.01
51067;BME280;37112;45.892;-123.962;2023-10-31T07:59:14;102017.71;;;6.86;66.02
51067;BME280;37112;45.892;-123.962;2023-10-31T08:01:24;102015.98;;;6.84;65.97
51067;BME280;37112;45.892;-123.962;2023-10-31T08:03:35;102011.77;;;6.85;66.06
51067;BME280;37112;45.892;-123.962;2023-10-31T08:05:45;102011.10;;;6.83;65.89
51067;BME280;37112;45.892;-123.962;2023-10-31T08:07:55;102012.30;;;6.79;65.76
51067;BME280;37112;45.892;-123.962;2023-10-31T08:10:06;102009.70;;;6.77;65.77
51067;BME280;37112;45.892;-123.962;2023-10-31T08:12:16;102009.59;;;6.75;65.79
51067;BME280;37112;45.892;-123.962;2023-10-31T08:14:26;102016.83;;;6.75;65.74
51067;BME280;37112;45.892;-123.962;2023-10-31T08:16:36;102014.98;;;6.77;66.02
51067;BME280;37112;45.892;-123.962;2023-10-31T08:18:46;102016.96;;;6.82;65.86
51067;BME280;37112;45.892;-123.962;2023-10-31T08:20:56;102020.00;;;6.87;65.84
51067;BME280;37112;45.892;-123.962;2023-10-31T08:23:05;102018.44;;;6.91;65.76
51067;BME280;37112;45.892;-123.962;2023-10-31T08:25:15;102013.80;;;6.92;65.28
51067;BME280;37112;45.892;-123.962;2023-10-31T08:27:25;102017.14;;;6.93;65.22
51067;BME280;37112;45.892;-123.962;2023-10-31T08:29:35;102016.01;;;6.95;65.22
51067;BME280;37112;45.892;-123.962;2023-10-31T08:31:45;102012.58;;;6.97;65.17
51067;BME280;37112;45.892;-123.962;2023-10-31T08:33:55;102012.51;;;6.99;65.06
51067;BME280;37112;45.892;-123.962;2023-10-31T08:36:06;102012.48;;;7.01;65.01
51067;BME280;37112;45.892;-123.962;2023-10-31T08:38:17;102005.81;;;7.05;64.99
51067;BME280;37112;45.892;-123.962;2023-10-31T08:40:36;102000.19;;;7.10;64.85
51067;BME280;37112;45.892;-123.962;2023-10-31T08:42:46;102001.47;;;7.13;64.73
51067;BME280;37112;45.892;-123.962;2023-10-31T08:44:56;102003.14;;;7.16;64.68
51067;BME280;37112;45.892;-123.962;2023-10-31T08:47:06;102003.79;;;7.18;64.58
51067;BME280;37112;45.892;-123.962;2023-10-31T08:49:16;102004.81;;;7.19;64.39
51067;BME280;37112;45.892;-123.962;2023-10-31T08:51:26;102001.13;;;7.18;64.29
51067;BME280;37112;45.892;-123.962;2023-10-31T08:53:36;102000.94;;;7.19;64.20
51067;BME280;37112;45.892;-123.962;2023-10-31T08:55:45;101999.31;;;7.20;64.16
51067;BME280;37112;45.892;-123.962;2023-10-31T08:57:56;101999.79;;;7.21;64.14
51067;BME280;37112;45.892;-123.962;2023-10-31T09:00:06;102003.44;;;7.24;64.08
51067;BME280;37112;45.892;-123.962;2023-10-31T09:02:17;102006.73;;;7.25;64.16
51067;BME280;37112;45.892;-123.962;2023-10-31T09:04:26;102007.19;;;7.27;64.15
51067;BME280;37112;45.892;-123.962;2023-10-31T09:06:36;102001.23;;;7.26;63.83
51067;BME280;37112;45.892;-123.962;2023-10-31T09:08:47;102001.73;;;7.21;63.79
51067;BME280;37112;45.892;-123.962;2023-10-31T09:10:57;102001.40;;;7.16;63.70
51067;BME280;37112;45.892;-123.962;2023-10-31T09:13:07;102003.02;;;7.10;63.86
51067;BME280;37112;45.892;-123.962;2023-10-31T09:15:17;102008.77;;;7.06;63.93
51067;BME280;37112;45.892;-123.962;2023-10-31T09:17:28;102006.92;;;7.03;64.00
51067;BME280;37112;45.892;-123.962;2023-10-31T09:19:38;102006.58;;;6.97;63.98
51067;BME280;37112;45.892;-123.962;2023-10-31T09:21:48;102007.99;;;6.92;64.02
51067;BME280;37112;45.892;-123.962;2023-10-31T09:23:58;102009.38;;;6.87;64.13
51067;BME280;37112;45.892;-123.962;2023-10-31T09:26:08;102006.82;;;6.84;64.24
51067;BME280;37112;45.892;-123.962;2023-10-31T09:28:19;102013.73;;;6.83;64.27
51067;BME280;37112;45.892;-123.962;2023-10-31T09:30:29;102011.80;;;6.83;64.34
51067;BME280;37112;45.892;-123.962;2023-10-31T09:32:39;102013.06;;;6.83;64.34
51067;BME280;37112;45.892;-123.962;2023-10-31T09:34:49;102017.16;;;6.81;64.34
51067;BME280;37112;45.892;-123.962;2023-10-31T09:36:59;102020.89;;;6.81;64.44
51067;BME280;37112;45.892;-123.962;2023-10-31T09:39:09;102022.30;;;6.81;64.41
51067;BME280;37112;45.892;-123.962;2023-10-31T09:41:19;102023.19;;;6.80;64.56
51067;BME280;37112;45.892;-123.962;2023-10-31T09:43:29;102022.90;;;6.78;64.58
51067;BME280;37112;45.892;-123.962;2023-10-31T09:45:40;102024.21;;;6.76;64.69
51067;BME280;37112;45.892;-123.962;2023-10-31T09:47:50;102023.30;;;6.72;64.81
51067;BME280;37112;45.892;-123.962;2023-10-31T09:50:00;102021.95;;;6.69;64.87
51067;BME280;37112;45.892;-123.962;2023-10-31T09:52:10;102022.98;;;6.70;64.93
51067;BME280;37112;45.892;-123.962;2023-10-31T09:54:20;102027.68;;;6.72;65.02
51067;BME280;37112;45.892;-123.962;2023-10-31T09:56:30;102028.33;;;6.74;64.94
51067;BME280;37112;45.892;-123.962;2023-10-31T09:58:43;102028.55;;;6.72;64.93
51067;BME280;37112;45.892;-123.962;2023-10-31T10:00:53;102022.98;;;6.70;64.86
51067;BME280;37112;45.892;-123.962;2023-10-31T10:03:03;102019.70;;;6.67;64.81
51067;BME280;37112;45.892;-123.962;2023-10-31T10:05:13;102018.69;;;6.66;64.99
51067;BME280;37112;45.892;-123.962;2023-10-31T10:07:24;102016.80;;;6.64;65.00
51067;BME280;37112;45.892;-123.962;2023-10-31T10:09:34;102017.72;;;6.63;65.12
51067;BME280;37112;45.892;-123.962;2023-10-31T10:11:44;102017.36;;;6.63;65.25
51067;BME280;37112;45.892;-123.962;2023-10-31T10:13:55;102018.80;;;6.63;65.09
51067;BME280;37112;45.892;-123.962;2023-10-31T10:16:07;102019.73;;;6.60;65.09
51067;BME280;37112;45.892;-123.962;2023-10-31T10:18:26;102016.31;;;6.57;65.06
51067;BME280;37112;45.892;-123.962;2023-10-31T10:20:36;102008.67;;;6.53;65.17
51067;BME280;37112;45.892;-123.962;2023-10-31T10:23:04;102002.67;;;6.47;65.30
51067;BME280;37112;45.892;-123.962;2023-10-31T10:25:14;101994.73;;;6.41;65.30
51067;BME280;37112;45.892;-123.962;2023-10-31T10:27:25;101994.89;;;6.35;65.52
51067;BME280;37112;45.892;-123.962;2023-10-31T10:29:35;101991.69;;;6.31;65.53
51067;BME280;37112;45.892;-123.962;2023-10-31T10:31:47;101989.14;;;6.27;65.67
51067;BME280;37112;45.892;-123.962;2023-10-31T10:33:57;101986.95;;;6.24;65.88
51067;BME280;37112;45.892;-123.962;2023-10-31T10:36:10;101983.52;;;6.21;65.96
51067;BME280;37112;45.892;-123.962;2023-10-31T10:38:21;101984.63;;;6.19;66.06
51067;BME280;37112;45.892;-123.962;2023-10-31T10:40:31;101980.56;;;6.19;66.08
51067;BME280;37112;45.892;-123.962;2023-10-31T10:42:44;101979.64;;;6.20;66.18
51067;BME280;37112;45.892;-123.962;2023-10-31T10:44:55;101969.21;;;6.21;66.32
51067;BME280;37112;45.892;-123.962;2023-10-31T10:47:07;101971.14;;;6.21;66.35
51067;BME280;37112;45.892;-123.962;2023-10-31T10:49:17;101970.60;;;6.22;66.31
51067;BME280;37112;45.892;-123.962;2023-10-31T10:51:32;101965.66;;;6.22;66.40
51067;BME280;37112;45.892;-123.962;2023-10-31T10:53:48;101966.55;;;6.21;66.35
51067;BME280;37112;45.892;-123.962;2023-10-31T10:55:59;101966.56;;;6.21;66.43
51067;BME280;37112;45.892;-123.962;2023-10-31T10:58:12;101963.77;;;6.20;66.29
51067;BME280;37112;45.892;-123.962;2023-10-31T11:00:26;101961.46;;;6.21;66.39
51067;BME280;37112;45.892;-123.962;2023-10-31T11:02:36;101953.19;;;6.20;66.37